createdAt,value
2018-01-31T01:52:20.638Z,3.05
2018-01-31T01:52:20.846Z,4.86
2018-01-31T01:53:05.783Z,4.92
2018-01-31T01:54:06.351Z,4.92
2018-01-31T01:55:06.917Z,4.99
2018-01-31T01:56:07.486Z,5.04
2018-01-31T01:57:08.053Z,4.99
2018-01-31T01:58:08.621Z,4.99
2018-01-31T01:59:09.187Z,5.02
2018-01-31T02:00:09.770Z,5.00
2018-01-31T02:01:10.334Z,4.94
2018-01-31T02:02:10.899Z,4.99
2018-01-31T02:03:11.467Z,5.02
2018-01-31T02:04:12.034Z,5.00
2018-01-31T02:05:12.601Z,5.02
2018-01-31T02:06:13.167Z,5.02
2018-01-31T02:07:13.735Z,5.02
2018-01-31T02:08:14.315Z,5.02
2018-01-31T02:09:14.884Z,5.00
2018-01-31T02:10:15.448Z,5.04
2018-01-31T02:11:16.015Z,5.04
2018-01-31T02:12:16.583Z,5.08
2018-01-31T02:13:17.152Z,5.10
2018-01-31T02:14:17.721Z,5.12
2018-01-31T02:15:18.289Z,5.18
2018-01-31T02:16:18.856Z,5.14
2018-01-31T02:17:19.440Z,5.11
2018-01-31T02:18:20.021Z,5.07
2018-01-31T02:19:20.590Z,5.15
2018-01-31T02:20:21.158Z,5.18
2018-01-31T02:21:21.727Z,5.25
2018-01-31T02:22:22.295Z,5.29
2018-01-31T02:23:22.862Z,5.26
2018-01-31T02:24:23.430Z,5.18
2018-01-31T02:25:23.999Z,5.23
2018-01-31T02:26:24.582Z,5.26
2018-01-31T02:27:25.151Z,5.21
2018-01-31T02:28:25.734Z,5.25
2018-01-31T02:29:26.302Z,5.23
2018-01-31T02:30:26.882Z,5.25
2018-01-31T02:31:27.450Z,5.23
2018-01-31T02:32:28.019Z,5.32
2018-01-31T02:33:28.588Z,5.35
2018-01-31T02:34:29.155Z,5.43
2018-01-31T02:35:29.724Z,5.39
2018-01-31T02:36:30.292Z,5.35
2018-01-31T02:37:30.859Z,5.44
2018-01-31T02:38:31.427Z,5.47
2018-01-31T02:39:31.994Z,5.51
2018-01-31T02:40:32.581Z,5.51
2018-01-31T02:41:33.141Z,5.43
2018-01-31T02:42:33.709Z,5.59
2018-01-31T02:43:34.277Z,5.53
2018-01-31T02:44:34.845Z,5.43
2018-01-31T02:45:35.414Z,5.48
2018-01-31T02:46:35.983Z,5.51
2018-01-31T02:47:36.594Z,5.53
2018-01-31T02:48:37.120Z,5.47
2018-01-31T02:49:37.705Z,5.54
2018-01-31T02:50:38.275Z,5.56
2018-01-31T02:51:38.839Z,5.56
2018-01-31T02:52:39.407Z,5.57
2018-01-31T02:53:39.975Z,5.62
2018-01-31T02:54:40.546Z,5.73
2018-01-31T02:55:41.113Z,5.62
2018-01-31T02:56:41.681Z,5.61
2018-01-31T02:57:42.248Z,5.59
2018-01-31T02:58:42.813Z,5.71
2018-01-31T02:59:43.381Z,5.64
2018-01-31T03:00:43.948Z,5.64
2018-01-31T03:01:44.515Z,5.68
2018-01-31T03:02:45.084Z,5.72
2018-01-31T03:03:45.657Z,5.69
2018-01-31T03:04:46.220Z,5.72
2018-01-31T03:05:46.789Z,5.72
2018-01-31T03:06:47.358Z,5.72
2018-01-31T03:07:47.927Z,5.73
2018-01-31T03:08:48.495Z,5.83
2018-01-31T03:09:49.063Z,5.75
2018-01-31T03:10:49.641Z,5.87
2018-01-31T03:11:50.200Z,5.79
2018-01-31T03:12:50.768Z,5.82
2018-01-31T03:13:51.339Z,5.83
2018-01-31T03:14:51.906Z,5.89
2018-01-31T03:15:52.476Z,5.90
2018-01-31T03:16:53.057Z,5.91
2018-01-31T03:17:53.623Z,5.91
2018-01-31T03:18:54.190Z,5.90
2018-01-31T03:19:54.757Z,5.98
2018-01-31T03:20:55.325Z,5.91
2018-01-31T03:21:55.896Z,5.93
2018-01-31T03:22:56.464Z,5.99
2018-01-31T03:23:57.032Z,5.90
2018-01-31T03:24:57.600Z,6.11
2018-01-31T03:25:58.168Z,6.19
2018-01-31T03:26:58.735Z,6.09
2018-01-31T03:27:59.302Z,6.12
2018-01-31T03:28:59.868Z,6.07
2018-01-31T03:30:00.438Z,6.14
2018-01-31T03:31:01.007Z,6.12
2018-01-31T03:32:01.577Z,6.07
2018-01-31T03:33:02.161Z,6.26
2018-01-31T03:34:02.730Z,6.22
2018-01-31T03:35:03.298Z,6.22
2018-01-31T03:36:03.870Z,6.14
2018-01-31T03:37:04.452Z,6.22
2018-01-31T03:38:05.021Z,6.22
2018-01-31T03:39:05.590Z,6.26
2018-01-31T03:40:06.157Z,6.26
2018-01-31T03:41:06.726Z,6.27
2018-01-31T03:42:07.295Z,6.27
2018-01-31T03:43:07.862Z,6.30
2018-01-31T03:44:08.431Z,6.28
2018-01-31T03:45:09.028Z,6.22
2018-01-31T03:46:09.566Z,6.38
2018-01-31T03:47:10.133Z,6.20
2018-01-31T03:48:10.701Z,6.31
2018-01-31T03:49:11.269Z,6.28
2018-01-31T03:50:11.838Z,6.33
2018-01-31T03:51:12.407Z,6.27
2018-01-31T03:52:12.978Z,6.33
2018-01-31T03:53:13.560Z,6.36
2018-01-31T03:54:14.131Z,6.36
2018-01-31T03:55:14.699Z,6.33
2018-01-31T03:56:15.265Z,6.33
2018-01-31T03:57:15.842Z,6.49
2018-01-31T03:58:16.411Z,6.44
2018-01-31T03:59:16.981Z,6.46
2018-01-31T04:00:17.549Z,6.74
2018-01-31T04:01:18.133Z,6.60
2018-01-31T04:02:18.702Z,6.59
2018-01-31T04:03:19.271Z,6.62
2018-01-31T04:04:19.844Z,6.59
2018-01-31T04:05:20.406Z,6.57
2018-01-31T04:06:20.973Z,6.60
2018-01-31T04:07:21.541Z,6.60
2018-01-31T04:08:22.126Z,6.57
2018-01-31T04:09:22.693Z,6.85
2018-01-31T04:10:23.263Z,6.78
2018-01-31T04:11:23.832Z,6.81
2018-01-31T04:12:24.414Z,6.82
2018-01-31T04:13:24.983Z,6.95
2018-01-31T04:14:25.552Z,6.82
2018-01-31T04:15:26.121Z,6.81
2018-01-31T04:16:26.688Z,6.88
2018-01-31T04:17:27.258Z,6.87
2018-01-31T04:18:27.826Z,7.07
2018-01-31T04:19:28.393Z,7.07
2018-01-31T04:20:28.960Z,7.05
2018-01-31T04:21:29.527Z,7.15
2018-01-31T04:22:30.095Z,7.17
2018-01-31T04:23:30.664Z,7.17
2018-01-31T04:24:31.235Z,7.11
2018-01-31T04:25:31.817Z,7.31
2018-01-31T04:26:32.387Z,7.32
2018-01-31T04:27:32.970Z,7.28
2018-01-31T04:28:33.541Z,7.24
2018-01-31T04:29:34.111Z,7.15
2018-01-31T04:30:34.680Z,7.40
2018-01-31T04:31:35.264Z,7.40
2018-01-31T04:32:35.817Z,7.51
2018-01-31T04:33:36.385Z,7.61
2018-01-31T04:34:36.955Z,7.38
2018-01-31T04:35:37.526Z,7.56
2018-01-31T04:36:38.110Z,7.51
2018-01-31T04:37:38.679Z,7.57
2018-01-31T04:38:39.248Z,7.79
2018-01-31T04:39:39.817Z,7.66
2018-01-31T04:40:40.387Z,7.66
2018-01-31T04:41:40.957Z,7.87
2018-01-31T04:42:41.528Z,7.80
2018-01-31T04:43:42.099Z,7.73
2018-01-31T04:44:42.668Z,7.98
2018-01-31T04:45:43.237Z,8.03
2018-01-31T04:46:43.804Z,7.93
2018-01-31T04:47:44.373Z,8.15
2018-01-31T04:48:44.943Z,8.05
2018-01-31T04:49:45.512Z,8.06
2018-01-31T04:50:46.095Z,8.09
2018-01-31T04:51:46.663Z,8.24
2018-01-31T04:52:47.234Z,8.30
2018-01-31T04:53:47.802Z,8.37
2018-01-31T04:54:48.386Z,8.26
2018-01-31T04:55:48.956Z,8.24
2018-01-31T04:56:49.524Z,8.36
2018-01-31T04:57:50.094Z,8.38
2018-01-31T04:58:50.664Z,8.30
2018-01-31T04:59:51.247Z,8.26
2018-01-31T05:00:51.816Z,8.33
2018-01-31T05:01:52.384Z,8.36
2018-01-31T05:02:52.953Z,8.34
2018-01-31T05:03:53.521Z,8.42
2018-01-31T05:04:54.090Z,8.38
2018-01-31T05:05:54.658Z,8.41
2018-01-31T05:06:55.226Z,8.53
2018-01-31T05:07:55.795Z,8.56
2018-01-31T05:08:56.366Z,8.52
2018-01-31T05:09:56.936Z,8.51
2018-01-31T05:10:57.505Z,8.46
2018-01-31T05:11:58.073Z,8.56
2018-01-31T05:12:58.643Z,8.49
2018-01-31T05:13:59.210Z,8.49
2018-01-31T05:14:59.778Z,8.51
2018-01-31T05:16:00.346Z,8.58
2018-01-31T05:17:00.914Z,8.63
2018-01-31T05:18:01.484Z,8.55
2018-01-31T05:19:02.052Z,8.63
2018-01-31T05:20:02.647Z,8.58
2018-01-31T05:21:03.190Z,8.56
2018-01-31T05:22:03.758Z,8.60
2018-01-31T05:23:04.328Z,8.48
2018-01-31T05:24:04.897Z,8.63
2018-01-31T05:25:05.467Z,8.82
2018-01-31T05:26:06.046Z,8.79
2018-01-31T05:27:06.605Z,8.70
2018-01-31T05:28:07.189Z,8.71
2018-01-31T05:29:07.757Z,8.74
2018-01-31T05:30:08.326Z,8.74
2018-01-31T05:31:08.897Z,8.71
2018-01-31T05:32:09.468Z,8.74
2018-01-31T05:33:10.037Z,8.81
2018-01-31T05:34:10.607Z,8.84
2018-01-31T05:35:11.175Z,8.84
2018-01-31T05:36:11.744Z,8.85
2018-01-31T05:37:12.314Z,8.82
2018-01-31T05:38:12.883Z,8.89
2018-01-31T05:39:13.455Z,8.91
2018-01-31T05:40:14.025Z,8.89
2018-01-31T05:41:14.595Z,8.82
2018-01-31T05:42:15.163Z,9.10
2018-01-31T05:43:15.732Z,9.06
2018-01-31T05:44:16.302Z,9.03
2018-01-31T05:45:16.883Z,8.91
2018-01-31T05:46:17.453Z,8.97
2018-01-31T05:47:18.022Z,8.92
2018-01-31T05:48:18.592Z,8.94
2018-01-31T05:49:19.176Z,9.08
2018-01-31T05:50:19.745Z,8.99
2018-01-31T05:51:20.316Z,9.06
2018-01-31T05:52:20.889Z,8.99
2018-01-31T05:53:21.457Z,9.04
2018-01-31T05:54:22.027Z,8.92
2018-01-31T05:55:22.597Z,9.11
2018-01-31T05:56:23.164Z,9.11
2018-01-31T05:57:23.736Z,9.13
2018-01-31T05:58:24.375Z,9.03
2018-01-31T05:59:24.889Z,9.11
2018-01-31T06:00:25.459Z,9.13
2018-01-31T06:01:26.030Z,9.18
2018-01-31T06:02:26.601Z,9.19
2018-01-31T06:03:27.186Z,9.21
2018-01-31T06:04:27.757Z,9.10
2018-01-31T06:05:28.328Z,9.13
2018-01-31T06:06:28.897Z,9.23
2018-01-31T06:07:29.466Z,9.23
2018-01-31T06:08:30.051Z,9.23
2018-01-31T06:09:30.623Z,9.28
2018-01-31T06:10:31.188Z,9.25
2018-01-31T06:11:31.772Z,9.28
2018-01-31T06:12:32.342Z,9.31
2018-01-31T06:13:32.919Z,9.28
2018-01-31T06:14:33.481Z,9.28
2018-01-31T06:15:34.050Z,9.29
2018-01-31T06:16:34.620Z,9.41
2018-01-31T06:17:35.191Z,9.32
2018-01-31T06:18:35.762Z,9.26
2018-01-31T06:19:36.332Z,9.36
2018-01-31T06:20:36.901Z,9.26
2018-01-31T06:21:37.469Z,9.34
2018-01-31T06:22:38.038Z,9.32
2018-01-31T06:23:38.606Z,9.32
2018-01-31T06:24:39.175Z,9.28
2018-01-31T06:25:39.744Z,9.36
2018-01-31T06:26:40.313Z,9.41
2018-01-31T06:27:40.883Z,9.26
2018-01-31T06:28:41.454Z,9.39
2018-01-31T06:29:42.038Z,9.31
2018-01-31T06:30:42.609Z,9.29
2018-01-31T06:31:43.179Z,9.48
2018-01-31T06:32:43.748Z,9.44
2018-01-31T06:33:44.318Z,9.34
2018-01-31T06:34:44.889Z,9.28
2018-01-31T06:35:45.459Z,9.25
2018-01-31T06:36:46.030Z,9.34
2018-01-31T06:37:46.602Z,9.34
2018-01-31T06:38:47.176Z,9.51
2018-01-31T06:39:47.743Z,9.56
2018-01-31T06:40:48.326Z,9.54
2018-01-31T06:41:48.897Z,9.55
2018-01-31T06:42:49.484Z,9.50
2018-01-31T06:43:50.035Z,9.56
2018-01-31T06:44:50.606Z,9.55
2018-01-31T06:45:51.188Z,9.54
2018-01-31T06:46:51.759Z,9.55
2018-01-31T06:47:52.344Z,9.51
2018-01-31T06:48:52.913Z,9.59
2018-01-31T06:49:53.483Z,9.59
2018-01-31T06:50:54.052Z,9.55
2018-01-31T06:51:54.623Z,9.51
2018-01-31T06:52:55.196Z,9.58
2018-01-31T06:53:55.765Z,9.51
2018-01-31T06:54:56.335Z,9.51
2018-01-31T06:55:56.919Z,9.58
2018-01-31T06:56:57.489Z,9.58
2018-01-31T06:57:58.056Z,9.56
2018-01-31T06:58:58.626Z,9.61
2018-01-31T06:59:59.194Z,9.50
2018-01-31T07:00:59.764Z,9.66
2018-01-31T07:02:00.333Z,9.54
2018-01-31T07:03:00.904Z,9.64
2018-01-31T07:04:01.476Z,9.59
2018-01-31T07:05:02.060Z,9.62
2018-01-31T07:06:02.631Z,9.58
2018-01-31T07:07:03.201Z,9.64
2018-01-31T07:08:03.774Z,9.56
2018-01-31T07:09:04.354Z,9.54
2018-01-31T07:10:04.927Z,9.59
2018-01-31T07:11:05.496Z,9.66
2018-01-31T07:12:06.065Z,9.69
2018-01-31T07:13:06.634Z,9.61
2018-01-31T07:14:07.203Z,9.56
2018-01-31T07:15:07.771Z,9.62
2018-01-31T07:16:08.346Z,9.58
2018-01-31T07:17:08.924Z,9.48
2018-01-31T07:18:09.494Z,9.55
2018-01-31T07:19:10.065Z,9.55
2018-01-31T07:20:10.637Z,9.51
2018-01-31T07:21:11.208Z,9.48
2018-01-31T07:22:11.781Z,9.59
2018-01-31T07:23:12.350Z,9.50
2018-01-31T07:24:12.935Z,9.48
2018-01-31T07:25:13.506Z,9.66
2018-01-31T07:26:14.075Z,9.68
2018-01-31T07:27:14.644Z,9.68
2018-01-31T07:28:15.213Z,9.68
2018-01-31T07:29:15.783Z,9.64
2018-01-31T07:30:16.355Z,9.76
2018-01-31T07:31:16.925Z,9.65
2018-01-31T07:32:17.495Z,9.54
2018-01-31T07:33:18.064Z,9.56
2018-01-31T07:34:18.635Z,9.59
2018-01-31T07:35:19.203Z,9.51
2018-01-31T07:36:19.771Z,9.54
2018-01-31T07:37:20.344Z,9.61
2018-01-31T07:38:20.931Z,9.59
2018-01-31T07:39:21.504Z,9.54
2018-01-31T07:40:22.073Z,9.56
2018-01-31T07:41:22.643Z,9.48
2018-01-31T07:42:23.215Z,9.61
2018-01-31T07:43:23.784Z,9.46
2018-01-31T07:44:24.355Z,9.66
2018-01-31T07:45:24.927Z,9.59
2018-01-31T07:46:25.498Z,9.58
2018-01-31T07:47:26.086Z,9.65
2018-01-31T07:48:26.659Z,9.62
2018-01-31T07:49:27.227Z,9.54
2018-01-31T07:50:27.796Z,9.61
2018-01-31T07:51:28.367Z,9.58
2018-01-31T07:52:28.940Z,9.62
2018-01-31T07:53:29.513Z,9.64
2018-01-31T07:54:30.084Z,9.56
2018-01-31T07:55:30.653Z,9.59
2018-01-31T07:56:31.225Z,9.50
2018-01-31T07:57:31.793Z,9.56
2018-01-31T07:58:32.366Z,9.59
2018-01-31T07:59:32.945Z,9.58
2018-01-31T08:00:33.509Z,9.51
2018-01-31T08:01:34.081Z,9.55
2018-01-31T08:02:34.650Z,9.50
2018-01-31T08:03:35.234Z,9.56
2018-01-31T08:04:35.804Z,9.48
2018-01-31T08:05:36.374Z,9.51
2018-01-31T08:06:36.947Z,9.48
2018-01-31T08:07:37.518Z,9.48
2018-01-31T08:08:38.093Z,9.48
2018-01-31T08:09:38.661Z,9.51
2018-01-31T08:10:39.232Z,9.43
2018-01-31T08:11:39.803Z,9.46
2018-01-31T08:12:40.373Z,9.43
2018-01-31T08:13:40.946Z,9.43
2018-01-31T08:14:41.517Z,9.51
2018-01-31T08:15:42.088Z,9.51
2018-01-31T08:16:42.659Z,9.58
2018-01-31T08:17:43.245Z,9.55
2018-01-31T08:18:43.816Z,9.50
2018-01-31T08:19:44.390Z,9.50
2018-01-31T08:20:44.960Z,9.58
2018-01-31T08:21:45.532Z,9.54
2018-01-31T08:22:46.102Z,9.58
2018-01-31T08:23:46.672Z,9.58
2018-01-31T08:24:47.245Z,9.59
2018-01-31T08:25:47.817Z,9.54
2018-01-31T08:26:48.389Z,9.61
2018-01-31T08:27:48.959Z,9.58
2018-01-31T08:28:49.578Z,9.62
2018-01-31T08:29:50.098Z,9.50
2018-01-31T08:30:50.668Z,9.39
2018-01-31T08:31:51.240Z,9.43
2018-01-31T08:32:51.811Z,9.39
2018-01-31T08:33:52.384Z,9.47
2018-01-31T08:34:52.955Z,9.48
2018-01-31T08:35:53.528Z,9.43
2018-01-31T08:36:54.100Z,9.48
2018-01-31T08:37:54.672Z,9.50
2018-01-31T08:38:55.241Z,9.51
2018-01-31T08:39:55.812Z,9.44
2018-01-31T08:40:56.382Z,9.46
2018-01-31T08:41:56.956Z,9.44
2018-01-31T08:42:57.528Z,9.51
2018-01-31T08:43:58.100Z,9.51
2018-01-31T08:44:58.670Z,9.51
2018-01-31T08:45:59.241Z,9.61
2018-01-31T08:46:59.815Z,9.54
2018-01-31T08:48:00.383Z,9.48
2018-01-31T08:49:00.954Z,9.50
2018-01-31T08:50:01.574Z,9.43
2018-01-31T08:51:02.096Z,9.56
2018-01-31T08:52:02.665Z,9.51
2018-01-31T08:53:03.236Z,9.51
2018-01-31T08:54:03.808Z,9.54
2018-01-31T08:55:04.380Z,9.61
2018-01-31T08:56:04.951Z,9.58
2018-01-31T08:57:05.519Z,9.62
2018-01-31T08:58:06.090Z,9.62
2018-01-31T08:59:06.662Z,9.62
2018-01-31T09:00:07.233Z,9.54
2018-01-31T09:01:07.807Z,9.56
2018-01-31T09:02:08.377Z,9.54
2018-01-31T09:03:08.947Z,9.58
2018-01-31T09:04:09.532Z,9.54
2018-01-31T09:05:10.102Z,9.47
2018-01-31T09:06:10.673Z,9.56
2018-01-31T09:07:11.245Z,9.55
2018-01-31T09:08:11.816Z,9.51
2018-01-31T09:09:12.390Z,9.59
2018-01-31T09:10:12.960Z,9.50
2018-01-31T09:11:13.531Z,9.56
2018-01-31T09:12:14.105Z,9.56
2018-01-31T09:13:14.677Z,9.66
2018-01-31T09:14:15.250Z,9.66
2018-01-31T09:15:15.822Z,9.61
2018-01-31T09:16:16.394Z,9.66
2018-01-31T09:17:16.967Z,9.61
2018-01-31T09:18:17.538Z,9.64
2018-01-31T09:19:18.110Z,9.68
2018-01-31T09:20:18.694Z,9.66
2018-01-31T09:21:19.266Z,9.65
2018-01-31T09:22:19.884Z,9.77
2018-01-31T09:23:20.413Z,9.76
2018-01-31T09:24:20.985Z,9.68
2018-01-31T09:25:21.573Z,9.68
2018-01-31T09:26:22.143Z,9.62
2018-01-31T09:27:22.714Z,9.68
2018-01-31T09:28:23.287Z,9.62
2018-01-31T09:29:23.859Z,9.56
2018-01-31T09:30:24.431Z,9.62
2018-01-31T09:31:25.001Z,9.65
2018-01-31T09:32:25.593Z,9.66
2018-01-31T09:33:26.162Z,9.65
2018-01-31T09:34:26.730Z,9.68
2018-01-31T09:35:27.307Z,9.66
2018-01-31T09:36:27.873Z,9.55
2018-01-31T09:37:28.446Z,9.50
2018-01-31T09:38:29.017Z,9.68
2018-01-31T09:39:29.589Z,9.56
2018-01-31T09:40:30.162Z,9.61
2018-01-31T09:41:30.748Z,9.55
2018-01-31T09:42:31.353Z,9.58
2018-01-31T09:43:31.890Z,9.56
2018-01-31T09:44:32.475Z,9.59
2018-01-31T09:45:33.047Z,9.54
2018-01-31T09:46:33.620Z,9.61
2018-01-31T09:47:34.190Z,9.61
2018-01-31T09:48:34.774Z,9.47
2018-01-31T09:49:35.345Z,9.58
2018-01-31T09:50:35.916Z,9.48
2018-01-31T09:51:36.501Z,9.59
2018-01-31T09:52:37.074Z,9.58
2018-01-31T09:53:37.647Z,9.55
2018-01-31T09:54:38.219Z,9.59
2018-01-31T09:55:38.794Z,9.61
2018-01-31T09:56:39.378Z,9.58
2018-01-31T09:57:39.948Z,9.58
2018-01-31T09:58:40.534Z,9.55
2018-01-31T09:59:41.105Z,9.58
2018-01-31T10:00:41.691Z,9.51
2018-01-31T10:01:42.262Z,9.56
2018-01-31T10:02:42.847Z,9.50
2018-01-31T10:03:43.419Z,9.62
2018-01-31T10:04:43.989Z,9.59
2018-01-31T10:05:44.561Z,9.50
2018-01-31T10:06:45.144Z,9.61
2018-01-31T10:07:45.715Z,9.61
2018-01-31T10:08:46.286Z,9.58
2018-01-31T10:09:46.858Z,9.51
2018-01-31T10:10:47.429Z,9.55
2018-01-31T10:11:48.000Z,9.47
2018-01-31T10:12:48.570Z,9.54
2018-01-31T10:13:49.140Z,9.54
2018-01-31T10:14:49.712Z,9.56
2018-01-31T10:15:50.284Z,9.54
2018-01-31T10:16:50.857Z,9.58
2018-01-31T10:17:51.428Z,9.58
2018-01-31T10:18:51.997Z,9.58
2018-01-31T10:19:52.566Z,9.61
2018-01-31T10:20:53.138Z,9.58
2018-01-31T10:21:53.711Z,9.55
2018-01-31T10:22:54.283Z,9.47
2018-01-31T10:23:54.854Z,9.56
2018-01-31T10:24:55.438Z,9.61
2018-01-31T10:25:56.008Z,9.54
2018-01-31T10:26:56.578Z,9.59
2018-01-31T10:27:57.147Z,9.55
2018-01-31T10:28:57.718Z,9.54
2018-01-31T10:29:58.290Z,9.54
2018-01-31T10:30:58.862Z,9.54
2018-01-31T10:31:59.433Z,9.59
2018-01-31T10:33:00.007Z,9.55
2018-01-31T10:34:00.590Z,9.61
2018-01-31T10:35:01.161Z,9.61
2018-01-31T10:36:01.735Z,9.46
2018-01-31T10:37:02.308Z,9.48
2018-01-31T10:38:02.878Z,9.55
2018-01-31T10:39:03.449Z,9.50
2018-01-31T10:40:04.020Z,9.54
2018-01-31T10:41:04.592Z,9.58
2018-01-31T10:42:05.164Z,9.55
2018-01-31T10:43:05.736Z,9.51
2018-01-31T10:44:06.306Z,9.62
2018-01-31T10:45:06.876Z,9.55
2018-01-31T10:46:07.446Z,9.55
2018-01-31T10:47:08.017Z,9.61
2018-01-31T10:48:08.590Z,9.50
2018-01-31T10:49:09.175Z,9.58
2018-01-31T10:50:09.760Z,9.54
2018-01-31T10:51:10.320Z,9.47
2018-01-31T10:52:10.890Z,9.58
2018-01-31T10:53:11.462Z,9.58
2018-01-31T10:57:28.459Z,9.54
2018-01-31T10:57:28.883Z,9.41
2018-01-31T10:58:18.166Z,9.51
2018-01-31T10:59:18.738Z,9.55
2018-01-31T11:00:19.310Z,9.55
2018-01-31T11:01:19.881Z,9.61
2018-01-31T11:02:20.457Z,9.55
2018-01-31T11:03:21.027Z,9.50
2018-01-31T11:04:21.597Z,9.62
2018-01-31T11:05:22.168Z,9.58
2018-01-31T11:06:22.739Z,9.51
2018-01-31T11:07:23.309Z,9.56
2018-01-31T11:08:23.880Z,9.50
2018-01-31T11:09:24.452Z,9.58
2018-01-31T11:10:25.024Z,9.61
2018-01-31T11:11:25.596Z,9.64
2018-01-31T11:12:26.166Z,9.54
2018-01-31T11:13:26.737Z,9.55
2018-01-31T11:14:27.309Z,9.50
2018-01-31T11:15:27.880Z,9.56
2018-01-31T11:16:28.452Z,9.54
2018-01-31T11:17:29.023Z,9.55
2018-01-31T11:18:29.595Z,9.48
2018-01-31T11:19:30.163Z,9.51
2018-01-31T11:20:30.735Z,9.44
2018-01-31T11:21:31.308Z,9.51
2018-01-31T11:22:31.881Z,9.55
2018-01-31T11:23:32.455Z,9.41
2018-01-31T11:24:33.021Z,9.41
2018-01-31T11:25:33.592Z,9.41
2018-01-31T11:26:34.165Z,9.36
2018-01-31T11:27:34.751Z,9.46
2018-01-31T11:28:35.323Z,9.55
2018-01-31T11:29:35.896Z,9.48
2018-01-31T11:30:36.466Z,9.39
2018-01-31T11:31:37.050Z,9.50
2018-01-31T11:32:37.619Z,9.48
2018-01-31T11:33:38.191Z,9.47
2018-01-31T11:34:38.776Z,9.55
2018-01-31T11:35:39.348Z,9.41
2018-01-31T11:36:39.922Z,9.32
2018-01-31T11:37:40.493Z,9.54
2018-01-31T11:38:41.065Z,9.41
2018-01-31T11:39:41.637Z,9.39
2018-01-31T11:40:42.222Z,9.43
2018-01-31T11:41:42.793Z,9.46
2018-01-31T11:42:43.364Z,9.50
2018-01-31T11:43:43.938Z,9.41
2018-01-31T11:44:44.508Z,9.39
2018-01-31T11:45:45.081Z,9.39
2018-01-31T11:46:45.664Z,9.40
2018-01-31T11:47:46.235Z,9.31
2018-01-31T11:48:46.805Z,9.37
2018-01-31T11:49:47.376Z,9.29
2018-01-31T11:50:47.944Z,9.23
2018-01-31T11:51:48.516Z,9.32
2018-01-31T11:52:49.095Z,9.25
2018-01-31T11:53:49.665Z,9.23
2018-01-31T11:54:50.249Z,9.28
2018-01-31T11:55:50.819Z,9.26
2018-01-31T11:56:51.387Z,9.13
2018-01-31T11:57:51.957Z,8.94
2018-01-31T11:58:52.531Z,8.70
2018-01-31T11:59:53.102Z,8.66
2018-01-31T12:00:53.675Z,8.53
2018-01-31T12:01:54.246Z,8.33
2018-01-31T12:02:54.816Z,8.10
2018-01-31T12:03:55.389Z,8.08
2018-01-31T12:04:55.959Z,8.00
2018-01-31T12:05:56.545Z,7.87
2018-01-31T12:06:57.117Z,7.87
2018-01-31T12:07:57.687Z,7.83
2018-01-31T12:08:58.257Z,7.85
2018-01-31T12:09:58.827Z,7.82
2018-01-31T12:10:59.398Z,7.83
2018-01-31T12:11:59.971Z,7.72
2018-01-31T12:13:00.547Z,7.75
2018-01-31T12:14:01.111Z,7.88
2018-01-31T12:15:01.681Z,7.69
2018-01-31T12:16:02.251Z,7.77
2018-01-31T12:17:02.823Z,7.72
2018-01-31T12:18:03.392Z,7.73
2018-01-31T12:19:03.966Z,7.75
2018-01-31T12:20:04.536Z,7.73
2018-01-31T12:21:05.105Z,7.73
2018-01-31T12:22:05.678Z,7.73
2018-01-31T12:23:06.247Z,7.66
2018-01-31T12:24:06.818Z,7.57
2018-01-31T12:25:07.389Z,7.57
2018-01-31T12:26:07.959Z,7.48
2018-01-31T12:27:08.529Z,7.47
2018-01-31T12:28:09.100Z,7.53
2018-01-31T12:29:09.672Z,7.45
2018-01-31T12:30:10.243Z,7.47
2018-01-31T12:31:10.813Z,7.45
2018-01-31T12:32:11.386Z,7.40
2018-01-31T12:33:11.956Z,7.53
2018-01-31T12:34:12.526Z,7.53
2018-01-31T12:35:13.097Z,7.51
2018-01-31T12:36:13.665Z,7.60
2018-01-31T12:37:14.235Z,7.63
2018-01-31T12:38:14.804Z,7.70
2018-01-31T12:39:15.389Z,7.63
2018-01-31T12:40:15.960Z,7.70
2018-01-31T12:41:16.532Z,7.67
2018-01-31T12:42:17.101Z,7.69
2018-01-31T12:43:17.670Z,7.73
2018-01-31T12:44:18.255Z,7.75
2018-01-31T12:45:18.825Z,7.75
2018-01-31T12:46:19.397Z,7.72
2018-01-31T12:47:20.016Z,7.77
2018-01-31T12:48:20.536Z,7.69
2018-01-31T12:49:21.106Z,7.63
2018-01-31T12:50:21.682Z,7.69
2018-01-31T12:51:22.276Z,7.79
2018-01-31T12:52:22.821Z,7.73
2018-01-31T12:53:23.391Z,7.73
2018-01-31T12:54:23.961Z,7.73
2018-01-31T12:55:24.532Z,7.72
2018-01-31T12:56:25.103Z,7.77
2018-01-31T12:57:25.672Z,7.83
2018-01-31T12:58:26.246Z,7.80
2018-01-31T12:59:26.811Z,7.79
2018-01-31T13:00:27.380Z,7.69
2018-01-31T13:01:27.949Z,7.75
2018-01-31T13:02:28.518Z,7.75
2018-01-31T13:03:29.100Z,7.70
2018-01-31T13:04:29.687Z,7.79
2018-01-31T13:05:30.253Z,7.73
2018-01-31T13:06:30.822Z,7.75
2018-01-31T13:07:31.393Z,7.70
2018-01-31T13:08:31.963Z,7.72
2018-01-31T13:09:32.535Z,7.70
2018-01-31T13:10:33.105Z,7.69
2018-01-31T13:11:33.678Z,7.70
2018-01-31T13:12:34.256Z,7.75
2018-01-31T13:13:34.823Z,7.69
2018-01-31T13:14:35.394Z,7.72
2018-01-31T13:15:35.967Z,7.70
2018-01-31T13:16:36.539Z,7.76
2018-01-31T13:17:37.125Z,7.66
2018-01-31T13:18:37.696Z,7.72
2018-01-31T13:19:38.281Z,7.73
2018-01-31T13:20:38.886Z,7.73
2018-01-31T13:21:39.424Z,7.77
2018-01-31T13:22:39.996Z,7.66
2018-01-31T13:23:40.565Z,7.72
2018-01-31T13:24:41.133Z,7.76
2018-01-31T13:25:41.702Z,7.77
2018-01-31T13:26:42.273Z,7.75
2018-01-31T13:27:42.858Z,7.73
2018-01-31T13:28:43.430Z,7.79
2018-01-31T13:29:44.003Z,7.75
2018-01-31T13:30:44.574Z,7.77
2018-01-31T13:31:45.145Z,7.76
2018-01-31T13:32:45.717Z,7.80
2018-01-31T13:33:46.288Z,7.76
2018-01-31T13:34:46.857Z,7.72
2018-01-31T13:35:47.428Z,7.63
2018-01-31T13:36:48.000Z,7.73
2018-01-31T13:37:48.570Z,7.73
2018-01-31T13:38:49.144Z,7.70
2018-01-31T13:39:49.714Z,7.70
2018-01-31T13:40:50.286Z,7.72
2018-01-31T13:41:50.858Z,7.72
2018-01-31T13:42:51.428Z,7.76
2018-01-31T13:43:51.999Z,7.76
2018-01-31T13:44:52.570Z,7.88
2018-01-31T13:45:53.155Z,7.75
2018-01-31T13:46:53.772Z,7.82
2018-01-31T13:47:54.296Z,7.82
2018-01-31T13:48:54.867Z,7.85
2018-01-31T13:49:55.438Z,7.87
2018-01-31T13:50:56.007Z,7.82
2018-01-31T13:51:56.577Z,7.83
2018-01-31T13:52:57.148Z,7.83
2018-01-31T13:53:57.718Z,7.85
2018-01-31T13:54:58.290Z,7.73
2018-01-31T13:55:58.859Z,7.70
2018-01-31T13:56:59.428Z,7.77
2018-01-31T13:58:00.009Z,7.76
2018-01-31T13:59:00.571Z,7.70
2018-01-31T14:00:01.142Z,7.75
2018-01-31T14:01:01.712Z,7.82
2018-01-31T14:02:02.282Z,7.72
2018-01-31T14:03:02.854Z,7.76
2018-01-31T14:04:03.437Z,7.73
2018-01-31T14:05:04.008Z,7.75
2018-01-31T14:06:04.580Z,7.85
2018-01-31T14:07:05.152Z,7.73
2018-01-31T14:08:05.721Z,7.75
2018-01-31T14:09:06.291Z,7.73
2018-01-31T14:10:06.873Z,7.85
2018-01-31T14:11:07.442Z,7.87
2018-01-31T14:12:08.010Z,7.83
2018-01-31T14:13:08.595Z,7.87
2018-01-31T14:14:09.167Z,7.91
2018-01-31T14:15:09.739Z,7.85
2018-01-31T14:16:10.312Z,7.90
2018-01-31T14:17:10.901Z,7.91
2018-01-31T14:18:11.470Z,7.93
2018-01-31T14:19:12.042Z,7.88
2018-01-31T14:20:12.611Z,7.90
2018-01-31T14:21:13.183Z,7.94
2018-01-31T14:22:13.753Z,7.83
2018-01-31T14:23:14.338Z,7.85
2018-01-31T14:24:14.909Z,7.79
2018-01-31T14:25:15.479Z,7.98
2018-01-31T14:26:16.050Z,7.87
2018-01-31T14:27:16.620Z,7.87
2018-01-31T14:28:17.190Z,7.79
2018-01-31T14:29:17.760Z,7.93
2018-01-31T14:30:18.345Z,7.83
2018-01-31T14:31:18.929Z,7.91
2018-01-31T14:32:19.513Z,7.90
2018-01-31T14:33:20.081Z,7.88
2018-01-31T14:34:20.653Z,7.79
2018-01-31T14:35:21.221Z,7.91
2018-01-31T14:36:21.790Z,7.85
2018-01-31T14:37:22.359Z,7.94
2018-01-31T14:38:22.942Z,7.88
2018-01-31T14:39:23.510Z,7.85
2018-01-31T14:40:24.080Z,7.98
2018-01-31T14:41:24.651Z,7.85
2018-01-31T14:42:25.223Z,7.88
2018-01-31T14:43:25.793Z,7.88
2018-01-31T14:44:26.378Z,7.88
2018-01-31T14:45:26.947Z,7.88
2018-01-31T14:46:27.517Z,7.87
2018-01-31T14:47:28.087Z,7.83
2018-01-31T14:48:28.658Z,7.83
2018-01-31T14:49:29.228Z,7.82
2018-01-31T14:50:29.801Z,7.85
2018-01-31T14:51:30.371Z,7.85
2018-01-31T14:52:30.940Z,7.77
2018-01-31T14:53:31.511Z,7.88
2018-01-31T14:54:32.081Z,7.87
2018-01-31T14:55:32.666Z,7.83
2018-01-31T14:56:33.236Z,7.83
2018-01-31T14:57:33.820Z,7.79
2018-01-31T14:58:34.390Z,7.90
2018-01-31T14:59:34.964Z,7.88
2018-01-31T15:00:35.529Z,7.90
2018-01-31T15:01:36.098Z,7.87
2018-01-31T15:02:36.669Z,7.83
2018-01-31T15:03:37.239Z,7.77
2018-01-31T15:04:37.812Z,7.73
2018-01-31T15:05:38.381Z,7.85
2018-01-31T15:06:38.952Z,7.91
2018-01-31T15:07:39.521Z,7.75
2018-01-31T15:08:40.091Z,7.76
2018-01-31T15:09:40.666Z,7.75
2018-01-31T15:10:41.232Z,7.66
2018-01-31T15:11:41.802Z,7.60
2018-01-31T15:12:42.370Z,7.69
2018-01-31T15:13:42.952Z,7.72
2018-01-31T15:14:43.537Z,7.61
2018-01-31T15:15:44.106Z,7.67
2018-01-31T15:16:44.696Z,7.60
2018-01-31T15:17:45.265Z,7.66
2018-01-31T15:18:45.835Z,7.58